Česky Dansk Deutsch English Español Suomi Français Magyar Italiano Nederlands norsk Polski Português svenska Türkçe

 

Weather

Gilze-Rijen (Netherlands)

13:25, 23 August 2016 (GMT)

NWNNE
WE
SWSSE
Home            
Gilze-Rijen Weelde Military Eindhoven Brasschaat Woensdrecht Antwerpen / Deurne Volkel Rotterdam Airport Zestienhoven Kleine Brogel De Bilt Schaffen Soesterberg Valkenburg Bruxelles National Melsbroek Bel-Afb Genk Amsterdam Airport Schiphol Niederrhein Laarbruch Deelen Goetsenhoven Sint-Truiden Gent / Industrie-Zone

To put a weather button on your web site or blog, copy the code below and paste it into your page . The first box contains HTML code, the second UBB code.


Add to Google

Details

Wind speed:1 bf, 3 kn, 1.5 m/s, 3.5 miles/h, 5.6 km/h
Wind direction:ENE, 070° - S, 190°
Visibility:Greater than 10000 m, 10 km, 32800 ft, 6.2 miles
Clouds:CAVOC
Temperature:28°C, 82°F
Feels like:28°C, 82°F
Dew-point:15°C, 59°F
Atmospheric pressure:1025 hPa, 768.8 mmHg, 30.27 inHg, 1.012 atm
Relative humidity:45.1 %
METAR:EHGR 231325Z AUTO 24004KT 070V190 9999 NCD 28/15 Q1025 BLU 18003KT CAVOK

Shortcuts

An up-to-date overview of weather conditions all over the world. Add locations with the plus (+) sign. These shortcuts can be added to Google.

Lid van de Technetium groep

website free tracking
StatCounter NetStat W3C Validator

20-11-2017 02:29:09
astro.technetium.be money.technetium.be phote.technetium.be tafeltennistafel.technetium.be www.ligfiets.net